Time;durP1;ratioP1;P1;durP2;ratioP2;P2;SDS_P1;SDS_P2;PMS_P1;PMS_P2;Temp;Humidity;BMP_temperature;BMP_pressure;BME280_temperature;BME280_humidity;BME280_pressure;Samples;Min_cycle;Max_cycle;Signal;HPM_P1;HPM_P2
2023/06/23 00:02:06;;;;;;;11.18;6.55;;;18.50;99.90;;;;;;5098531;28;20043;-56
2023/06/23 00:04:32;;;;;;;12.93;7.15;;;18.40;99.90;;;;;;5099403;28;20043;-57
2023/06/23 00:06:59;;;;;;;11.27;6.25;;;18.40;99.90;;;;;;5098971;28;20107;-58
2023/06/23 00:09:25;;;;;;;11.80;6.65;;;18.40;99.90;;;;;;5099070;28;20101;-57
2023/06/23 00:11:51;;;;;;;11.25;7.50;;;18.40;99.90;;;;;;5098963;28;20091;-57
2023/06/23 00:14:17;;;;;;;12.60;7.50;;;18.30;99.90;;;;;;5098770;28;20471;-58
2023/06/23 00:16:43;;;;;;;10.73;6.80;;;18.30;99.90;;;;;;5098636;28;20076;-57
2023/06/23 00:19:09;;;;;;;10.60;7.55;;;18.30;99.90;;;;;;5098493;28;20052;-57
2023/06/23 00:21:35;;;;;;;11.98;7.65;;;18.20;99.90;;;;;;5099303;28;20103;-57
2023/06/23 00:24:00;;;;;;;12.32;8.07;;;18.20;99.90;;;;;;5098403;28;20091;-58
2023/06/23 00:26:26;;;;;;;15.07;8.38;;;18.10;99.90;;;;;;5098684;28;20088;-58
2023/06/23 00:28:52;;;;;;;14.10;7.80;;;18.10;99.90;;;;;;5098583;28;20124;-58
2023/06/23 00:31:17;;;;;;;13.27;7.65;;;18.10;99.90;;;;;;5096442;28;20056;-56
2023/06/23 00:33:43;;;;;;;12.43;8.05;;;18.20;99.90;;;;;;5098189;28;20108;-57
2023/06/23 00:36:09;;;;;;;12.50;8.10;;;18.20;99.90;;;;;;5098443;28;20043;-57
2023/06/23 00:38:34;;;;;;;11.68;7.38;;;18.20;99.90;;;;;;5097429;28;20040;-57
2023/06/23 00:41:01;;;;;;;13.40;7.78;;;18.20;99.90;;;;;;5079709;28;20059;-57
2023/06/23 00:43:30;;;;;;;12.27;7.95;;;18.10;99.90;;;;;;5104678;28;20036;-57
2023/06/23 00:46:04;;;;;;;12.40;7.18;;;18.20;99.90;;;;;;5115559;28;20414;-58
2023/06/23 00:48:29;;;;;;;12.00;7.60;;;18.20;99.90;;;;;;5108046;28;20065;-57
2023/06/23 00:50:56;;;;;;;14.15;7.60;;;18.10;99.90;;;;;;5102866;28;20044;-58
2023/06/23 00:53:21;;;;;;;13.38;8.15;;;18.10;99.90;;;;;;5096589;28;20074;-58
2023/06/23 00:55:47;;;;;;;11.50;8.13;;;18.10;99.90;;;;;;5098610;28;20497;-58
2023/06/23 00:58:12;;;;;;;12.35;7.63;;;18.10;99.90;;;;;;5097768;28;20039;-57
2023/06/23 01:00:38;;;;;;;12.40;7.97;;;18.10;99.90;;;;;;5098208;28;20071;-57
2023/06/23 01:03:04;;;;;;;10.90;7.90;;;18.00;99.90;;;;;;5098108;28;20040;-57
2023/06/23 01:05:36;;;;;;;13.68;7.93;;;18.10;99.90;;;;;;5097930;28;20100;-57
2023/06/23 01:08:36;;;;;;;12.90;8.35;;;18.10;99.90;;;;;;5096441;28;20208;-57
2023/06/23 01:11:11;;;;;;;13.70;8.30;;;18.10;99.90;;;;;;5097954;28;20360;-57
2023/06/23 01:13:45;;;;;;;16.52;9.63;;;18.10;99.90;;;;;;5097814;28;20741;-57
2023/06/23 01:16:23;;;;;;;16.88;10.50;;;18.00;99.90;;;;;;5097620;28;20043;-57
2023/06/23 01:19:00;;;;;;;16.55;10.02;;;18.00;99.90;;;;;;5097561;28;20131;-57
2023/06/23 01:21:38;;;;;;;15.50;10.13;;;17.90;99.90;;;;;;5098132;28;20044;-57
2023/06/23 01:24:38;;;;;;;15.77;10.40;;;17.90;99.90;;;;;;5097486;28;20044;-57
2023/06/23 01:27:07;;;;;;;15.93;9.95;;;17.80;99.90;;;;;;5097677;28;20447;-55
2023/06/23 01:29:36;;;;;;;16.05;9.68;;;17.80;99.90;;;;;;5097264;28;20063;-57
2023/06/23 01:32:14;;;;;;;14.30;9.00;;;17.80;99.90;;;;;;5096096;28;20044;-57
2023/06/23 01:34:50;;;;;;;14.32;8.93;;;17.80;99.90;;;;;;5097569;28;20525;-57
2023/06/23 01:37:26;;;;;;;14.38;8.80;;;17.70;99.90;;;;;;5097634;28;20067;-54
2023/06/23 01:39:59;;;;;;;13.43;9.32;;;17.60;99.90;;;;;;5097513;28;20044;-58
2023/06/23 01:42:34;;;;;;;12.60;8.35;;;17.70;99.90;;;;;;5098467;28;20056;-57
2023/06/23 01:45:02;;;;;;;12.10;7.20;;;17.60;99.90;;;;;;5101377;28;20043;-57
2023/06/23 01:47:33;;;;;;;13.23;7.57;;;17.60;99.90;;;;;;5101822;28;20488;-57
2023/06/23 01:50:02;;;;;;;10.70;6.68;;;17.50;99.90;;;;;;5101634;28;20046;-57
2023/06/23 01:52:30;;;;;;;14.15;6.65;;;17.50;99.90;;;;;;5101339;28;20044;-57
2023/06/23 01:54:57;;;;;;;12.57;6.47;;;17.60;99.90;;;;;;5101529;28;20043;-57
2023/06/23 01:57:25;;;;;;;12.68;5.93;;;17.60;99.90;;;;;;5101363;28;20036;-58
2023/06/23 01:59:52;;;;;;;9.52;5.75;;;17.50;99.90;;;;;;5101485;28;20048;-57
2023/06/23 02:02:20;;;;;;;11.18;6.85;;;17.50;99.90;;;;;;5101163;28;20075;-58
2023/06/23 02:04:49;;;;;;;11.35;5.82;;;17.60;99.90;;;;;;5101712;28;20113;-58
2023/06/23 02:07:17;;;;;;;12.70;6.72;;;17.60;99.90;;;;;;5101240;28;20055;-57
2023/06/23 02:09:45;;;;;;;10.38;6.30;;;17.50;99.90;;;;;;5101122;28;20048;-57
2023/06/23 02:12:12;;;;;;;11.15;6.20;;;17.50;99.90;;;;;;5101194;28;20044;-57
2023/06/23 02:14:40;;;;;;;15.30;8.23;;;17.50;99.90;;;;;;5099518;28;20056;-57
2023/06/23 02:17:09;;;;;;;12.50;7.38;;;17.40;99.90;;;;;;5101682;28;20407;-57
2023/06/23 02:19:41;;;;;;;13.13;6.63;;;17.40;99.90;;;;;;5100829;28;20055;-57
2023/06/23 02:22:11;;;;;;;12.45;7.35;;;17.40;99.90;;;;;;5101175;28;20048;-57
2023/06/23 02:24:39;;;;;;;10.82;6.18;;;17.50;99.90;;;;;;5100930;28;20537;-57
2023/06/23 02:27:06;;;;;;;12.68;7.30;;;17.50;99.90;;;;;;5101109;28;20127;-57
2023/06/23 02:29:35;;;;;;;13.75;6.88;;;17.50;99.90;;;;;;5100621;28;20070;-57
2023/06/23 02:32:02;;;;;;;12.77;6.95;;;17.40;99.90;;;;;;5100253;28;20142;-57
2023/06/23 02:34:28;;;;;;;10.88;5.78;;;17.40;99.90;;;;;;5099485;28;20044;-57
2023/06/23 02:37:01;;;;;;;12.20;6.90;;;17.40;99.90;;;;;;5100614;28;20082;-58
2023/06/23 02:39:30;;;;;;;13.57;6.97;;;17.40;99.90;;;;;;5100834;28;20048;-57
2023/06/23 02:41:59;;;;;;;10.80;6.68;;;17.30;99.90;;;;;;5100612;28;20105;-58
2023/06/23 02:44:34;;;;;;;10.98;6.13;;;17.30;99.90;;;;;;5100698;28;20081;-58
2023/06/23 02:47:03;;;;;;;10.63;6.32;;;17.20;99.90;;;;;;5100985;28;20414;-55
2023/06/23 02:49:31;;;;;;;10.13;5.75;;;17.20;99.90;;;;;;5098795;28;20052;-57
2023/06/23 02:52:02;;;;;;;11.88;6.50;;;17.10;99.90;;;;;;5100620;28;20040;-57
2023/06/23 02:54:32;;;;;;;11.70;6.50;;;17.20;99.90;;;;;;5100240;28;20044;-57
2023/06/23 02:56:59;;;;;;;13.57;5.75;;;17.20;99.90;;;;;;5100335;28;20343;-57
2023/06/23 02:59:26;;;;;;;14.68;6.15;;;17.20;99.90;;;;;;5100106;28;20048;-57
2023/06/23 03:01:54;;;;;;;9.30;5.70;;;17.10;99.90;;;;;;5100063;28;20044;-57
2023/06/23 03:04:22;;;;;;;13.48;7.10;;;17.10;99.90;;;;;;5100473;28;20128;-58
2023/06/23 03:06:47;;;;;;;11.10;5.60;;;17.00;99.90;;;;;;5100247;28;20052;-58
2023/06/23 03:09:13;;;;;;;11.05;5.95;;;17.00;99.90;;;;;;5100265;28;20055;-57
2023/06/23 03:11:39;;;;;;;10.98;6.40;;;17.00;99.90;;;;;;5100071;28;20056;-57
2023/06/23 03:14:05;;;;;;;11.13;6.22;;;16.90;99.90;;;;;;5098772;28;20046;-57
2023/06/23 03:16:35;;;;;;;12.32;5.82;;;16.90;99.90;;;;;;5099932;28;20059;-57
2023/06/23 03:19:20;;;;;;;12.48;6.40;;;16.90;99.90;;;;;;5099971;28;20048;-57
2023/06/23 03:21:51;;;;;;;11.32;5.47;;;16.80;99.90;;;;;;5100144;28;20040;-57
2023/06/23 03:24:20;;;;;;;12.90;6.53;;;16.70;99.90;;;;;;5099872;28;20055;-58
2023/06/23 03:26:49;;;;;;;11.43;6.30;;;16.70;99.90;;;;;;5099708;28;20042;-57
2023/06/23 03:29:19;;;;;;;10.27;6.97;;;16.70;99.90;;;;;;5099865;28;20044;-57
2023/06/23 03:31:46;;;;;;;11.85;7.38;;;16.60;99.90;;;;;;5098207;28;20502;-57
2023/06/23 03:34:15;;;;;;;9.65;6.10;;;16.60;99.90;;;;;;5106374;28;20107;-57
2023/06/23 03:36:42;;;;;;;12.45;7.82;;;16.50;99.90;;;;;;5119600;28;20047;-57
2023/06/23 03:39:33;;;;;;;11.65;7.38;;;16.60;99.90;;;;;;5120167;28;20578;-57
2023/06/23 03:42:00;;;;;;;11.15;6.75;;;16.60;99.90;;;;;;5119827;28;20051;-58
2023/06/23 03:44:39;;;;;;;12.48;7.40;;;16.60;99.90;;;;;;5120025;28;20044;-58
2023/06/23 03:47:11;;;;;;;13.70;8.27;;;16.50;99.90;;;;;;5120025;28;20247;-58
2023/06/23 03:49:44;;;;;;;12.70;7.68;;;16.50;99.90;;;;;;5119616;28;20050;-57
2023/06/23 03:52:12;;;;;;;11.65;7.32;;;16.40;99.90;;;;;;5119805;27;20040;-58
2023/06/23 04:01:02;;;;;;;13.43;7.65;;;16.20;99.90;;;;;;5117177;28;20042;-57
2023/06/23 04:03:30;;;;;;;11.65;6.75;;;16.20;99.90;;;;;;5118678;28;20051;-57
2023/06/23 04:06:17;;;;;;;11.70;7.30;;;16.20;99.90;;;;;;5117788;28;20234;-58
2023/06/23 04:08:44;;;;;;;17.38;8.38;;;16.30;99.90;;;;;;5099516;28;20051;-57
2023/06/23 04:11:12;;;;;;;13.60;7.45;;;16.50;99.90;;;;;;5115807;28;20055;-54
2023/06/23 04:13:39;;;;;;;12.57;7.32;;;16.60;99.90;;;;;;5115544;28;20058;-56
2023/06/23 04:16:07;;;;;;;13.13;7.93;;;16.60;99.90;;;;;;5116224;28;20514;-56
2023/06/23 04:18:35;;;;;;;11.25;7.13;;;16.70;99.90;;;;;;5115727;28;20096;-55
2023/06/23 04:21:04;;;;;;;12.82;8.23;;;16.70;99.90;;;;;;5116239;28;20051;-56
2023/06/23 04:23:32;;;;;;;14.15;7.53;;;16.50;99.90;;;;;;5116042;28;20055;-55
2023/06/23 04:25:58;;;;;;;11.38;7.50;;;16.50;99.90;;;;;;5116622;28;20052;-53
2023/06/23 04:28:25;;;;;;;14.15;7.32;;;16.40;99.90;;;;;;5099544;28;20077;-55
2023/06/23 04:30:53;;;;;;;9.98;5.97;;;16.40;99.90;;;;;;5116215;28;20570;-55
2023/06/23 04:33:18;;;;;;;13.48;7.22;;;16.50;99.90;;;;;;5116468;28;20498;-54
2023/06/23 04:35:47;;;;;;;12.25;7.45;;;16.60;99.90;;;;;;5116013;28;20071;-55
2023/06/23 04:38:15;;;;;;;12.73;7.20;;;16.60;99.90;;;;;;5116596;28;20078;-54
2023/06/23 04:40:51;;;;;;;12.65;7.68;;;16.60;99.90;;;;;;5099862;28;20052;-54
2023/06/23 04:43:32;;;;;;;11.48;7.30;;;16.60;99.90;;;;;;5108101;28;20043;-56
2023/06/23 04:46:03;;;;;;;10.98;7.13;;;16.60;99.90;;;;;;5105987;28;20047;-52
2023/06/23 04:48:34;;;;;;;12.25;7.65;;;16.60;99.90;;;;;;5110181;28;20068;-54
2023/06/23 04:51:05;;;;;;;14.80;7.70;;;16.50;99.90;;;;;;5098103;28;20065;-56
2023/06/23 04:53:37;;;;;;;13.20;7.40;;;16.50;99.90;;;;;;5097902;28;20091;-55
2023/06/23 04:56:04;;;;;;;;;;;16.40;99.90;;;;;;5098747;28;20052;-56
2023/06/23 04:58:35;;;;;;;10.85;7.20;;;16.40;99.90;;;;;;5096764;28;19920;-55
2023/06/23 05:01:03;;;;;;;12.82;7.40;;;16.40;99.90;;;;;;5098042;28;20044;-55
2023/06/23 05:03:31;;;;;;;12.20;7.07;;;16.40;99.90;;;;;;5097833;28;20604;-55
2023/06/23 05:05:58;;;;;;;12.98;7.55;;;16.40;99.90;;;;;;5097966;28;20047;-55
2023/06/23 05:08:26;;;;;;;13.18;8.30;;;16.40;99.90;;;;;;5098306;28;20085;-56
2023/06/23 05:10:53;;;;;;;14.00;7.45;;;16.40;99.90;;;;;;5097804;28;20147;-55
2023/06/23 05:13:21;;;;;;;14.82;7.55;;;16.40;99.90;;;;;;5097819;28;20071;-56
2023/06/23 05:15:48;;;;;;;10.90;7.25;;;16.50;99.90;;;;;;5097262;28;20060;-56
2023/06/23 05:18:17;;;;;;;12.70;7.70;;;16.60;99.90;;;;;;5096371;28;20051;-56
2023/06/23 05:20:46;;;;;;;11.70;7.00;;;16.60;99.90;;;;;;5097328;28;20036;-56
2023/06/23 05:23:15;;;;;;;10.80;7.63;;;16.60;99.90;;;;;;5097411;28;20048;-55
2023/06/23 05:25:44;;;;;;;12.93;7.38;;;16.70;99.90;;;;;;5095075;28;20166;-57
2023/06/23 05:28:12;;;;;;;15.07;8.20;;;16.60;99.90;;;;;;5096374;28;20052;-55
2023/06/23 05:30:40;;;;;;;12.52;7.68;;;16.70;99.90;;;;;;5112692;28;20044;-55
2023/06/23 05:33:07;;;;;;;11.75;7.72;;;16.70;99.90;;;;;;5114326;28;20093;-56
2023/06/23 05:35:36;;;;;;;11.65;7.00;;;16.60;99.90;;;;;;5111181;28;20044;-55
2023/06/23 05:38:04;;;;;;;12.55;7.43;;;16.70;99.90;;;;;;5113316;28;20039;-54
2023/06/23 05:40:30;;;;;;;11.75;7.43;;;16.70;99.90;;;;;;5113736;28;20036;-55
2023/06/23 05:42:56;;;;;;;13.35;7.88;;;16.70;99.90;;;;;;5114486;28;20116;-55
2023/06/23 05:45:22;;;;;;;13.60;7.63;;;16.70;99.90;;;;;;5114070;28;20039;-56
2023/06/23 05:48:20;;;;;;;12.57;8.13;;;16.80;99.90;;;;;;5114618;28;20035;-56
2023/06/23 05:50:48;;;;;;;12.00;7.47;;;16.90;99.90;;;;;;5113941;28;20048;-56
2023/06/23 05:53:17;;;;;;;12.38;7.05;;;17.00;99.90;;;;;;5113996;28;20913;-55
2023/06/23 05:55:55;;;;;;;10.10;7.90;;;17.20;99.90;;;;;;5114655;28;20055;-55
2023/06/23 05:58:26;;;;;;;10.95;7.50;;;17.40;99.90;;;;;;5114766;28;20077;-55
2023/06/23 06:00:54;;;;;;;12.68;7.90;;;17.40;99.90;;;;;;5114183;28;20043;-55
2023/06/23 06:03:24;;;;;;;14.40;8.18;;;17.60;99.90;;;;;;5114516;28;20046;-55
2023/06/23 06:05:54;;;;;;;14.00;7.95;;;17.70;99.90;;;;;;5114440;28;20035;-55
2023/06/23 06:08:22;;;;;;;12.50;7.47;;;17.90;99.90;;;;;;5114949;28;20081;-53
2023/06/23 06:10:49;;;;;;;12.10;6.97;;;18.10;99.90;;;;;;5114530;28;20052;-54
2023/06/23 06:13:16;;;;;;;12.70;7.90;;;18.10;99.90;;;;;;5113637;28;20087;-56
2023/06/23 06:15:45;;;;;;;10.73;6.75;;;18.10;99.90;;;;;;5114190;28;20058;-56
2023/06/23 06:18:15;;;;;;;12.40;6.47;;;18.30;99.90;;;;;;5114125;28;20047;-56
2023/06/23 06:20:42;;;;;;;10.63;6.82;;;18.50;99.90;;;;;;5113818;28;20040;-56
2023/06/23 06:23:10;;;;;;;8.95;5.50;;;18.70;99.90;;;;;;5112646;28;20099;-56
2023/06/23 06:25:36;;;;;;;10.18;5.45;;;18.90;99.90;;;;;;5114086;28;20044;-58
2023/06/23 06:28:07;;;;;;;8.77;4.78;;;19.00;99.90;;;;;;5114188;28;20051;-56
2023/06/23 06:30:34;;;;;;;9.67;5.70;;;19.20;99.90;;;;;;5117761;28;20086;-56
2023/06/23 06:33:02;;;;;;;11.82;5.72;;;19.10;99.90;;;;;;5117855;28;20100;-55
2023/06/23 06:35:30;;;;;;;11.48;5.15;;;19.10;99.90;;;;;;5117585;28;20056;-56
2023/06/23 06:37:56;;;;;;;9.32;4.85;;;19.10;99.90;;;;;;5116653;28;20043;-56
2023/06/23 06:40:24;;;;;;;8.63;4.95;;;19.10;99.90;;;;;;5101913;28;20197;-56
2023/06/23 06:42:50;;;;;;;9.93;4.75;;;19.40;99.90;;;;;;5097198;28;20044;-55
2023/06/23 06:45:16;;;;;;;9.10;5.13;;;19.30;99.90;;;;;;5096955;28;20059;-54
2023/06/23 06:47:43;;;;;;;7.80;4.63;;;19.40;99.90;;;;;;5103114;28;20046;-55
2023/06/23 06:50:15;;;;;;;9.02;4.35;;;19.40;99.90;;;;;;5103951;28;20051;-55
2023/06/23 06:52:42;;;;;;;8.25;4.10;;;19.40;99.90;;;;;;5108022;28;20059;-55
2023/06/23 06:55:14;;;;;;;7.45;4.13;;;19.60;99.90;;;;;;5106760;28;20036;-55
2023/06/23 06:57:40;;;;;;;8.10;4.22;;;19.90;99.90;;;;;;5110373;28;20047;-56
2023/06/23 07:00:09;;;;;;;12.38;5.15;;;20.10;99.90;;;;;;5107118;28;20050;-55
2023/06/23 07:02:36;;;;;;;8.80;4.38;;;20.10;99.90;;;;;;5105040;28;20036;-56
2023/06/23 07:05:02;;;;;;;9.00;3.88;;;20.00;99.90;;;;;;5103584;28;20120;-56
2023/06/23 07:07:30;;;;;;;7.53;4.10;;;19.90;99.90;;;;;;5106031;28;20058;-56
2023/06/23 07:09:56;;;;;;;8.20;3.50;;;20.10;99.90;;;;;;5110854;28;20056;-56
2023/06/23 07:12:23;;;;;;;8.90;3.60;;;20.20;99.90;;;;;;5106235;28;20040;-56
2023/06/23 07:14:49;;;;;;;6.38;3.42;;;20.40;99.90;;;;;;5111497;28;20049;-55
2023/06/23 07:17:15;;;;;;;8.43;4.00;;;20.50;99.90;;;;;;5105435;28;20519;-56
2023/06/23 07:19:41;;;;;;;7.10;4.47;;;20.50;99.90;;;;;;5099418;28;20040;-55
2023/06/23 07:22:07;;;;;;;8.52;4.78;;;20.10;99.90;;;;;;5098678;28;20517;-56
2023/06/23 07:24:33;;;;;;;9.27;4.40;;;20.30;99.90;;;;;;5098398;28;20555;-56
2023/06/23 07:26:58;;;;;;;6.78;4.45;;;20.20;99.90;;;;;;5099661;28;20281;-56
2023/06/23 07:29:24;;;;;;;9.32;4.53;;;20.20;99.90;;;;;;5099300;28;20036;-56
2023/06/23 07:31:50;;;;;;;7.32;3.80;;;20.20;99.90;;;;;;5099566;28;20081;-56
2023/06/23 07:34:16;;;;;;;7.55;3.95;;;20.30;99.90;;;;;;5100515;28;20044;-56
2023/06/23 07:36:41;;;;;;;7.60;4.30;;;20.50;99.90;;;;;;5099470;28;20096;-56
2023/06/23 07:39:08;;;;;;;7.95;4.65;;;20.30;99.90;;;;;;5099731;28;20115;-56
2023/06/23 07:41:34;;;;;;;8.55;4.90;;;20.40;99.90;;;;;;5098712;28;20050;-56
2023/06/23 07:44:00;;;;;;;9.02;4.13;;;20.70;99.90;;;;;;5099291;28;20103;-56
2023/06/23 07:46:26;;;;;;;7.68;4.22;;;20.70;99.90;;;;;;5099497;28;20051;-56
2023/06/23 07:48:52;;;;;;;8.52;4.28;;;21.00;99.90;;;;;;5099340;28;20040;-56
2023/06/23 07:51:17;;;;;;;8.30;4.20;;;20.60;99.90;;;;;;5100079;28;20051;-55
2023/06/23 07:53:43;;;;;;;7.03;3.90;;;20.60;99.90;;;;;;5097699;28;20043;-55
2023/06/23 07:56:12;;;;;;;8.15;4.55;;;20.70;99.90;;;;;;5099441;28;20048;-56
2023/06/23 07:58:40;;;;;;;8.73;4.30;;;20.50;99.90;;;;;;5099371;28;20040;-55
2023/06/23 08:01:06;;;;;;;8.30;4.82;;;20.60;99.90;;;;;;5099235;28;20064;-57
2023/06/23 08:03:32;;;;;;;6.95;4.10;;;20.70;99.90;;;;;;5099125;28;20047;-56
2023/06/23 08:05:59;;;;;;;7.15;4.00;;;20.70;99.90;;;;;;5098930;28;20048;-56
2023/06/23 08:08:24;;;;;;;7.80;4.20;;;20.90;99.90;;;;;;5099051;28;20074;-56
2023/06/23 08:10:50;;;;;;;9.45;4.75;;;20.70;99.90;;;;;;5098798;28;20032;-56
2023/06/23 08:13:16;;;;;;;7.43;3.97;;;20.70;99.90;;;;;;5098956;28;20036;-56
2023/06/23 08:15:42;;;;;;;6.82;3.65;;;20.50;99.90;;;;;;5098886;28;20297;-55
2023/06/23 08:18:08;;;;;;;6.82;3.92;;;20.50;99.90;;;;;;5097324;28;20502;-56
2023/06/23 08:20:34;;;;;;;8.13;4.47;;;20.40;99.90;;;;;;5098904;28;20047;-56
2023/06/23 08:23:00;;;;;;;9.07;4.20;;;20.60;99.90;;;;;;5097082;28;20048;-56
2023/06/23 08:25:25;;;;;;;8.07;4.57;;;20.40;99.90;;;;;;5099104;28;20064;-55
2023/06/23 08:27:51;;;;;;;7.80;4.75;;;20.60;99.90;;;;;;5098336;28;20052;-56
2023/06/23 08:30:27;;;;;;;7.95;4.40;;;20.70;99.90;;;;;;5098754;28;20048;-56
2023/06/23 08:32:53;;;;;;;9.30;4.97;;;20.70;99.90;;;;;;5098531;28;20048;-56
2023/06/23 08:35:19;;;;;;;11.65;5.85;;;20.60;99.90;;;;;;5098311;28;20051;-55
2023/06/23 08:37:44;;;;;;;10.95;5.38;;;21.00;99.90;;;;;;5097901;28;20051;-56
2023/06/23 08:40:10;;;;;;;8.63;4.53;;;21.00;99.90;;;;;;5098416;28;20048;-56
2023/06/23 08:42:37;;;;;;;8.45;5.28;;;21.30;99.90;;;;;;5098866;28;20595;-56
2023/06/23 08:45:03;;;;;;;8.63;5.35;;;21.00;99.90;;;;;;5098245;28;20043;-54
2023/06/23 08:47:30;;;;;;;8.80;4.63;;;21.10;99.90;;;;;;5098617;28;20104;-56
2023/06/23 08:49:57;;;;;;;9.98;5.03;;;21.20;99.90;;;;;;5098067;28;20032;-56
2023/06/23 08:52:24;;;;;;;8.82;4.95;;;21.20;99.90;;;;;;5096510;28;20050;-56
2023/06/23 08:54:50;;;;;;;8.85;5.10;;;21.10;99.90;;;;;;5097490;28;20081;-56
2023/06/23 08:57:17;;;;;;;9.43;5.75;;;21.10;99.90;;;;;;5097609;28;20048;-55
2023/06/23 08:59:43;;;;;;;11.20;4.72;;;21.40;99.90;;;;;;5098082;28;20040;-56
2023/06/23 09:02:09;;;;;;;9.02;4.28;;;21.20;99.90;;;;;;5098015;28;20093;-56
2023/06/23 09:04:34;;;;;;;7.35;3.95;;;21.30;99.90;;;;;;5098156;28;20040;-57
2023/06/23 09:07:00;;;;;;;8.70;4.28;;;20.90;99.90;;;;;;5096658;28;20040;-56
2023/06/23 09:09:26;;;;;;;10.00;4.40;;;21.00;99.90;;;;;;5097946;28;20058;-56
2023/06/23 09:11:52;;;;;;;7.80;4.13;;;21.10;99.90;;;;;;5097748;28;20040;-56
2023/06/23 09:14:18;;;;;;;6.85;3.53;;;21.40;99.90;;;;;;5097920;28;20089;-55
2023/06/23 09:16:45;;;;;;;7.80;4.50;;;21.20;99.90;;;;;;5098106;28;20036;-57
2023/06/23 09:19:11;;;;;;;8.52;4.25;;;21.20;99.90;;;;;;5097383;28;20048;-55
2023/06/23 09:21:40;;;;;;;7.70;4.13;;;21.60;99.90;;;;;;5098246;28;20036;-56
2023/06/23 09:24:07;;;;;;;8.65;4.45;;;21.70;99.90;;;;;;5097571;28;20046;-55
2023/06/23 09:26:49;;;;;;;7.70;4.63;;;21.30;99.90;;;;;;5097759;28;20064;-56
2023/06/23 09:29:21;;;;;;;7.43;4.00;;;21.50;99.90;;;;;;5097788;28;20131;-56
2023/06/23 09:31:49;;;;;;;7.05;3.80;;;21.80;99.90;;;;;;5097847;28;20103;-56
2023/06/23 09:34:24;;;;;;;9.70;6.07;;;21.90;99.90;;;;;;5104829;28;20096;-55
2023/06/23 09:36:52;;;;;;;9.55;5.07;;;21.50;99.90;;;;;;5105362;28;20052;-55
2023/06/23 09:39:18;;;;;;;8.68;5.35;;;21.60;99.90;;;;;;5111064;28;20090;-56
2023/06/23 09:41:57;;;;;;;8.38;4.78;;;21.40;99.90;;;;;;5107036;28;20040;-56
2023/06/23 09:44:35;;;;;;;9.45;5.25;;;21.80;99.90;;;;;;5099980;28;20195;-56
2023/06/23 09:47:03;;;;;;;8.48;5.25;;;21.80;99.90;;;;;;5108732;28;20039;-56
2023/06/23 09:49:36;;;;;;;8.73;5.63;;;21.60;99.90;;;;;;5117971;28;20040;-56
2023/06/23 09:52:02;;;;;;;10.13;5.65;;;21.80;99.90;;;;;;5118357;28;20099;-56
2023/06/23 09:54:33;;;;;;;10.45;6.03;;;22.10;99.90;;;;;;5116346;28;20054;-56
2023/06/23 09:57:10;;;;;;;9.83;5.93;;;22.00;99.90;;;;;;5118140;28;20047;-56
2023/06/23 09:59:40;;;;;;;10.32;5.90;;;21.70;99.90;;;;;;5118159;28;20414;-56
2023/06/23 10:02:07;;;;;;;11.77;6.28;;;22.00;99.90;;;;;;5117816;28;20054;-55
2023/06/23 10:04:34;;;;;;;9.60;6.35;;;21.90;99.90;;;;;;5120993;28;20070;-56
2023/06/23 10:07:21;;;;;;;9.10;5.70;;;21.90;99.90;;;;;;5121885;28;20052;-56
2023/06/23 10:09:51;;;;;;;9.45;5.40;;;21.90;99.90;;;;;;5116783;28;20047;-56
2023/06/23 10:12:23;;;;;;;10.18;6.50;;;22.10;99.90;;;;;;5121329;28;20114;-56
2023/06/23 10:14:49;;;;;;;;;;;21.80;99.90;;;;;;5121862;28;20509;-56
2023/06/23 10:17:16;;;;;;;11.88;6.22;;;22.20;99.90;;;;;;5122123;28;19920;-56
2023/06/23 10:19:44;;;;;;;9.40;6.00;;;21.70;99.90;;;;;;5121607;27;20047;-56
2023/06/23 10:22:13;;;;;;;9.93;6.07;;;22.00;99.90;;;;;;5121886;28;20099;-56
2023/06/23 10:24:39;;;;;;;9.63;5.85;;;21.90;99.90;;;;;;5121427;28;20043;-55
2023/06/23 10:27:05;;;;;;;9.35;6.72;;;21.90;99.90;;;;;;5120254;28;20051;-56
2023/06/23 10:29:32;;;;;;;10.20;6.88;;;22.00;99.90;;;;;;5121423;28;20063;-57
2023/06/23 10:32:00;;;;;;;8.63;5.50;;;22.00;99.90;;;;;;5120819;28;20051;-56
2023/06/23 10:34:28;;;;;;;11.90;6.68;;;22.40;99.90;;;;;;5121659;28;20075;-53
2023/06/23 10:36:57;;;;;;;10.23;6.35;;;21.90;99.90;;;;;;5113355;28;20042;-55
2023/06/23 10:39:26;;;;;;;10.25;6.70;;;21.90;99.90;;;;;;5105925;28;20104;-56
2023/06/23 10:41:53;;;;;;;10.30;6.80;;;21.70;99.90;;;;;;5114888;28;20059;-56
2023/06/23 10:44:19;;;;;;;9.90;7.03;;;21.90;99.90;;;;;;5113441;28;20088;-58
2023/06/23 10:46:47;;;;;;;10.00;6.85;;;22.20;99.90;;;;;;5107547;28;20054;-56
2023/06/23 10:49:14;;;;;;;10.65;6.75;;;22.40;99.90;;;;;;5113344;28;20046;-57
2023/06/23 10:51:41;;;;;;;12.50;7.50;;;22.40;99.90;;;;;;5105932;28;20048;-57
2023/06/23 10:54:07;;;;;;;10.02;6.80;;;22.00;99.90;;;;;;5100840;28;20482;-56
2023/06/23 10:56:35;;;;;;;9.73;7.03;;;22.10;99.90;;;;;;5100497;28;20078;-57
2023/06/23 10:59:17;;;;;;;11.60;7.35;;;22.20;99.90;;;;;;5100639;28;20048;-56
2023/06/23 11:02:07;;;;;;;10.98;7.05;;;22.30;99.90;;;;;;5100386;28;20091;-55
2023/06/23 11:04:50;;;;;;;11.45;7.30;;;22.30;99.90;;;;;;5120088;28;20039;-56
2023/06/23 11:07:15;;;;;;;12.35;7.32;;;22.30;99.90;;;;;;5117679;28;20039;-56
2023/06/23 11:10:04;;;;;;;10.00;6.93;;;22.40;99.90;;;;;;5119629;28;20053;-56
2023/06/23 11:12:36;;;;;;;10.57;7.15;;;22.30;99.90;;;;;;5108144;28;20044;-55
2023/06/23 11:15:19;;;;;;;10.05;6.90;;;22.40;99.90;;;;;;5110307;28;20039;-55
2023/06/23 11:17:57;;;;;;;13.43;8.50;;;22.50;99.90;;;;;;5106248;28;20073;-57
2023/06/23 11:20:23;;;;;;;11.85;8.20;;;22.10;99.90;;;;;;5104747;28;20044;-56
2023/06/23 11:23:15;;;;;;;11.82;7.75;;;22.60;99.90;;;;;;5113334;28;20051;-54
2023/06/23 11:25:45;;;;;;;11.90;8.50;;;22.40;99.90;;;;;;5107312;28;20108;-57
2023/06/23 11:28:24;;;;;;;10.70;7.50;;;22.10;99.90;;;;;;5112566;28;20040;-56
2023/06/23 11:31:05;;;;;;;11.10;7.82;;;22.30;99.90;;;;;;5099705;28;20055;-57
2023/06/23 11:33:32;;;;;;;11.65;7.50;;;22.10;99.90;;;;;;5105338;28;20051;-57
2023/06/23 11:36:19;;;;;;;10.85;6.85;;;22.30;99.90;;;;;;5108853;28;20051;-56
2023/06/23 11:38:45;;;;;;;10.20;7.03;;;22.70;99.90;;;;;;5099711;28;20553;-57
2023/06/23 11:41:13;;;;;;;9.73;6.45;;;22.10;99.90;;;;;;5099594;28;20499;-56
2023/06/23 11:43:39;;;;;;;11.20;6.85;;;22.40;99.90;;;;;;5106923;28;20031;-56
2023/06/23 11:46:09;;;;;;;9.55;6.38;;;22.20;99.90;;;;;;5111755;28;20091;-56
2023/06/23 11:48:36;;;;;;;10.75;6.20;;;22.50;99.90;;;;;;5097233;28;20307;-57
2023/06/23 11:51:04;;;;;;;11.07;5.75;;;22.20;99.90;;;;;;5098519;28;20070;-56
2023/06/23 11:53:30;;;;;;;9.48;5.70;;;22.40;99.90;;;;;;5102470;28;20086;-56
2023/06/23 11:55:57;;;;;;;8.48;5.85;;;22.40;99.90;;;;;;5107171;28;20048;-57
2023/06/23 11:58:23;;;;;;;10.30;5.60;;;21.80;99.90;;;;;;5104350;28;20036;-56
2023/06/23 12:00:48;;;;;;;9.90;5.47;;;22.30;99.90;;;;;;5100672;28;20057;-56
2023/06/23 12:03:15;;;;;;;7.75;5.13;;;22.40;99.90;;;;;;5102379;28;20062;-57
2023/06/23 12:05:42;;;;;;;10.15;5.50;;;22.60;99.90;;;;;;5099663;28;20101;-57
2023/06/23 12:08:08;;;;;;;8.43;4.28;;;22.50;99.90;;;;;;5104309;28;20040;-57
2023/06/23 12:10:38;;;;;;;8.75;4.60;;;22.50;99.90;;;;;;5104748;28;20047;-57
2023/06/23 12:13:13;;;;;;;8.40;4.88;;;22.30;99.90;;;;;;5102665;28;20039;-57
2023/06/23 12:15:43;;;;;;;8.02;4.47;;;22.40;99.90;;;;;;5104186;28;20090;-57
2023/06/23 12:18:09;;;;;;;8.98;4.30;;;22.40;99.90;;;;;;5100372;28;20032;-57
2023/06/23 12:20:43;;;;;;;7.75;3.90;;;22.60;99.90;;;;;;5104794;28;20039;-57
2023/06/23 12:23:10;;;;;;;8.43;4.13;;;22.80;99.90;;;;;;5118458;28;20073;-56
2023/06/23 12:25:42;;;;;;;9.63;3.53;;;22.90;99.90;;;;;;5103116;28;20032;-57
2023/06/23 12:28:14;;;;;;;;;;;22.90;99.90;;;;;;5099309;28;20082;-57
2023/06/23 12:30:44;;;;;;;;;;;22.60;98.10;;;;;;5099063;28;19923;-56
2023/06/23 12:33:18;;;;;;;7.72;3.42;;;22.90;98.40;;;;;;5105935;28;20321;-57
2023/06/23 12:36:02;;;;;;;6.57;3.22;;;23.00;99.40;;;;;;5109742;28;20149;-57
2023/06/23 12:38:36;;;;;;;6.18;3.30;;;22.70;97.30;;;;;;5100270;28;20104;-57
2023/06/23 12:41:26;;;;;;;7.65;3.60;;;22.70;99.10;;;;;;5098589;28;20071;-56
2023/06/23 12:43:59;;;;;;;8.10;3.53;;;22.80;98.10;;;;;;5098626;28;20075;-57
2023/06/23 12:46:27;;;;;;;7.78;3.40;;;22.60;99.30;;;;;;5112899;28;20125;-57
2023/06/23 12:48:54;;;;;;;6.35;3.22;;;22.50;97.50;;;;;;5111756;28;20063;-57
2023/06/23 12:51:37;;;;;;;7.60;3.58;;;22.60;98.50;;;;;;5116361;28;20120;-57
2023/06/23 12:54:03;;;;;;;7.60;3.80;;;22.60;99.90;;;;;;5109310;28;20036;-56
2023/06/23 12:56:29;;;;;;;9.95;3.65;;;22.50;99.80;;;;;;5105529;28;20052;-56
2023/06/23 12:58:55;;;;;;;6.90;3.60;;;22.70;99.90;;;;;;5104593;28;20134;-57